MDST/STI METAR and TAF weather

Enter ICAO airport designator
Station Type Date Time Source
MDST METAR 2021/01/16 02:00 UTC NOAA

MDST 160200Z 15006KT 9999 FEW018 SCT300 24/22 Q1015


Station Type Date Time Source
MDST Decoded METAR 2021/01/16 02:00 UTC NOAA

Santiago, Dominican Republic (MDST) 19-27N 070-42W
Jan 15, 2021 - 09:00 PM EST / 2021.01.16 0200 UTC
Wind: from the SSE (150 degrees) at 7 MPH (6 KT):0
Visibility: greater than 7 mile(s):0
Sky conditions: partly cloudy
Temperature: 75 F (24 C)
Dew Point: 71 F (22 C)
Relative Humidity: 88%
Pressure (altimeter): 29.97 in. Hg (1015 hPa)
ob: MDST 160200Z 15006KT 9999 FEW018 SCT300 24/22 Q1015
cycle: 2

Station Type Date Time Source
MDST TAF 2021/01/15 18:13 UTC NOAA

TAF MDST 151600Z 1518/1618 11008KT 9999 FEW020 SCT300

Example: see airport list